Ride Results

Cooyar (18-03-2017)
Ride distance: 80.0 km

Outcomes - Cooyar (18-03-2017)
Division No. of Entries Retired / DNE Completed Withdrawn Ineligible V/O Percentage Completed
HW 12 - 9 2 - 1 75.00%
MW 20 - 15 2 - 3 75.00%
LW 31 - 27 1 - 3 87.10%
JN 9 - 6 - - 3 66.67%
Totals 72 - 57 5 - 10 79.17%
Results - Cooyar (18-03-2017)
No. Rider Horse Place Time Leg Speeds Total
Km/Hr
H/R bpm
Heavyweight
18 Rod Field Brookleigh Louise 1 6:21:00 12.8, 12.2 12.60 34, 46, 45 (Avg:45)
75 Mark Nimon Abbeywood Le'Tigre 2 (BC) 6:25:00 12.9, 11.9 12.47 41, 50, 48 (Avg:49)
25 Matthew Gadsby Maximus Ra 3 6:33:00 12.5, 11.8 12.21 35, 54, 50 (Avg:52)
72 Shane Butler Ballanbrae Art Nouveau 4 6:57:00 12.8, 10.2 11.51 29, 50, 47 (Avg:48)
32 Gregg Fields Longrun Lightning 5 7:28:00 10.7, 10.7 10.71 39, 50, 53 (Avg:51)
73 Maurice Gray Aloha Queen 6 8:08:00 10.6, 9.0 9.84 37, 45, 42 (Avg:43)
24 Ricky Petersen Longrun Taffeta 6 8:08:00 10.4, 9.2 9.84 38, 47, 49 (Avg:48)
61 Elizabeth Piggott Rosevale Park Sportin Rose 6 8:08:00 10.8, 8.8 9.84 39, 49, 53 (Avg:51)
6 Sue Gurtner Cedarton Achak Abornazine 9 8:40:00 10.3, 8.1 9.23 36, 46, 54 (Avg:50)
66 Anthony Wolgast Nirou Zoheer Lame L2 0:00:00 10.6, 9.3 - 38, 44, 51 (Avg:47)
36 Olaf Lochtenberg Matta Mia Akbar Withdrawn L1 0:00:00 - - 36, 43 (Avg:43)
2 Gillian Taylor Cool Water Safara Withdrawn L1 0:00:00 - - 36, 53 (Avg:53)
Middleweight
63 Fiona Fenech Abberlyn Park Alivia 1 (BC) 4:49:00 16.7, 16.4 16.61 40, 48, 49 (Avg:48)
56 Leslie Saunders-Webb Edenfels Pegasus 2 4:59:00 16.6, 15.4 16.05 36, 48, 53 (Avg:50)
74 Sasha Laws-King Heathfield's Prince 3 6:27:00 12.5, 12.2 12.40 32, 41, 51 (Avg:46)
5 Graysen Clarke Gray-Gun Solitary Rose 4 6:57:00 12.0, 10.9 11.51 39, 49, 51 (Avg:50)
23 Floor Braunius Brookleigh Beyonce 5 7:01:00 11.8, 10.9 11.40 37, 45, 46 (Avg:45)
69 Simone Krahnen Kalkadoon Zorro 6 7:20:00 11.9, 9.8 10.91 36, 50, 51 (Avg:50)
21 Stephen Gray Crystal Beau 7 7:24:00 10.4, 11.2 10.81 43, 51, 52 (Avg:51)
20 Gayle Holmes Foxhaven O'Reilly 7 7:24:00 10.2, 11.5 10.81 40, 48, 48 (Avg:48)
7 David Cleland Emilina 9 7:28:00 10.4, 11.0 10.71 36, 40, 44 (Avg:42)
45 Liz Kirk Dunwingeri Aasalah 10 7:29:00 15.0, 7.9 10.69 40, 45, 51 (Avg:48)
33 Troy Wolgast Matta Mia Dimari 11 7:53:00 9.6, 10.7 10.15 37, 49, 47 (Avg:48)
39 Angela Ward Silver Dreamtime 12 7:55:00 10.7, 9.4 10.11 43, 47, 53 (Avg:50)
37 Bianca Lamme Benbourough Lad 13 8:14:00 11.0, 8.5 9.72 38, 46, 49 (Avg:47)
9 Corey Nix Macrocarpa Pleiade 13 8:14:00 9.6, 9.7 9.72 44, 41, 43 (Avg:42)
71 Karen Marriott Holly Hill's Billy Boy 15 8:40:00 9.9, 8.4 9.23 40, 49, 49 (Avg:49)
52 Virginia Barber Warregal Lame L2 0:00:00 12.0, 41.8 - 37, 55, 54 (Avg:54)
64 Sherry Lowe Saraid Diamant Lame L2 0:00:00 10.6, 9.3 - 40, 47, 49 (Avg:48)
28 Jessyca Dakin Boonara Tex Withdrawn L1 0:00:00 - - 36, 42 (Avg:42)
1 Lisa Loranger Eagleridge Coco Chanel Lame L1 0:00:00 10.1 - 36, 50 (Avg:50)
67 Angela Waldock Concord Withdrawn L1 0:00:00 - - 38, 43 (Avg:43)
Lightweight
65 Amaya Thomas Winderella Lodge Sphinx 1 (BC) 4:49:00 16.7, 16.4 16.61 34, 43, 42 (Avg:42)
17 Malin Olsson Brookleigh Bailey 2 6:15:00 13.0, 12.5 12.80 37, 46, 49 (Avg:47)
22 Leigh Ann Sample Brookleigh Dylan 2 6:15:00 13.0, 12.5 12.80 33, 42, 47 (Avg:44)
55 Kelsey Irvine Karma 4 6:23:00 12.8, 12.1 12.53 42, 47, 54 (Avg:50)
40 Jeanna Maher Chelleason Rembrandt 5 6:27:00 12.5, 12.2 12.40 31, 51, 47 (Avg:49)
42 Kaylea Maher Cameo Mazquerade 5 6:27:00 12.5, 12.2 12.40 40, 46, 56 (Avg:51)
26 Mindy Davies Aphrodite Malakia 7 6:33:00 12.5, 11.8 12.21 34, 41, 40 (Avg:40)
15 Shelley Chapman Sahala Astronomer 8 6:55:00 12.7, 10.4 11.57 36, 41, 48 (Avg:44)
14 Sarah Doyle Box Hill Scout 8 6:55:00 12.7, 10.4 11.57 38, 44, 46 (Avg:45)
34 Linda Lochtenberg Quiegly 10 7:00:00 12.3, 10.5 11.43 40, 49, 54 (Avg:51)
50 Janelle Taylor Glenewan Scout 10 7:00:00 12.3, 10.5 11.43 32, 45, 50 (Avg:47)
57 Shelley-ann Kimber Brookleigh Skyhawk 12 7:02:00 11.8, 10.8 11.37 41, 50, 53 (Avg:51)
77 Xanthe Webb Beaudacious te 12 7:02:00 11.6, 11.0 11.37 30, 41, 43 (Avg:42)
70 Erin Krahnen Iskah 14 7:20:00 11.9, 9.8 10.91 29, 49, 51 (Avg:50)
19 Gemma Sutcliffe Gheerulla Asterix 15 7:24:00 10.1, 11.6 10.81 41, 48, 53 (Avg:50)
31 Karen Fields Lasca's Legacy 16 7:28:00 10.7, 10.7 10.71 38, 44, 46 (Avg:45)
27 Kate Appleby Bashan Bayda 17 7:29:00 11.0, 10.3 10.69 39, 51, 50 (Avg:50)
30 Sue Sutcliffe Ra-Anji Firefly 17 7:29:00 10.7, 10.6 10.69 30, 42, 45 (Avg:43)
46 Miki Bell Picnic Park Katrinka 19 7:36:00 10.8, 10.1 10.53 41, 46, 53 (Avg:49)
47 Rachel Kuns Kelkette Park Silver Indicator 20 7:58:00 10.7, 9.3 10.04 36, 47, 47 (Avg:47)
48 Leigh Rich Miva Avanti 20 7:58:00 10.7, 9.3 10.04 37, 44, 48 (Avg:46)
10 Jocelyn Barnes Trinity 22 8:06:00 10.4, 9.2 9.88 34, 46, 53 (Avg:49)
13 Rebecca Deane Steel Poppy Zen 22 8:06:00 10.4, 9.2 9.88 38, 45, 49 (Avg:47)
12 Jan Tyrrell Steel Poppy Midnight Rum 22 8:06:00 11.8, 8.2 9.88 37, 41, 42 (Avg:41)
58 Claudia Gillies Sterling's Safari 25 8:09:00 9.8, 9.7 9.82 35, 37, 37 (Avg:37)
59 Anna Wyroslak Anglesea Gabriella 25 8:09:00 9.8, 9.7 9.82 36, 48, 48 (Avg:48)
3 Ema Basic Poco Lingotte 27 8:42:00 11.9, 7.2 9.20 33, 47, 48 (Avg:47)
11 Candy Gurtner Ya-Bint-Al-Hawa Lame L2 0:00:00 12.0, 10.0 - 33, 53, 54 (Avg:53)
44 Renee Trunley Misty Day Lame L2 0:00:00 11.8, 9.7 - 42, 52, 52 (Avg:52)
49 Rachel Brown Houdini Lame L1 0:00:00 13.0 - 34, 49 (Avg:49)
16 Janelle Roosen Greywood Magenta Withdrawn L1 0:00:00 - - 38, 53 (Avg:53)
Junior
60 Christopher Benstead Rosevale Park Angelo 1 (BC) 6:16:00 14.5, 11.1 12.77 40, 50, 50 (Avg:50)
76 Elexis Webb Bahrein Zambique 2 7:02:00 11.6, 11.0 11.37 32, 54, 44 (Avg:49)
43 Molly Choyce Abberlyn Park Astanna 3 7:24:00 11.8, 9.8 10.81 32, 39, 40 (Avg:39)
54 Georgie Barber Shanti 4 7:39:00 12.0, 9.0 10.46 43, 51, 52 (Avg:51)
35 Emma Dimech Matta Mia Kassanova 5 7:59:00 9.4, 10.7 10.02 45, 48, 48 (Avg:48)
4 Maeve Paten Mandora 6 8:42:00 11.9, 7.2 9.20 44, 48, 50 (Avg:49)
62 Michael Benstead Rosevale Park Sport Lame L2 0:00:00 10.8, 8.8 - 38, 51, 51 (Avg:51)
8 Talyn Nix Castlebar Consort Lame L2 0:00:00 9.6, 9.7 - 43, 42, 50 (Avg:46)
68 Jamie Benstead Rosevale Park Sport's Star Heart Rate L1 0:00:00 10.8 - 39, 57 (Avg:57)